Time;durP1;ratioP1;P1;durP2;ratioP2;P2;SDS_P1;SDS_P2;PMS_P1;PMS_P2;Temp;Humidity;BMP_temperature;BMP_pressure;BME280_temperature;BME280_humidity;BME280_pressure;Samples;Min_cycle;Max_cycle;Signal;HPM_P1;HPM_P2
2022/10/01 00:01:57;;;;;;;16.38;11.93;;;8.70;99.90;;;;;;5071801;28;20032;-87
2022/10/01 00:04:23;;;;;;;14.85;12.00;;;8.80;99.90;;;;;;5072506;28;20029;-88
2022/10/01 00:06:48;;;;;;;17.52;11.93;;;8.70;99.90;;;;;;5071751;28;20078;-88
2022/10/01 00:09:14;;;;;;;15.00;11.80;;;8.60;99.90;;;;;;5073111;28;20374;-88
2022/10/01 00:11:40;;;;;;;15.98;12.05;;;8.60;99.90;;;;;;5075915;28;20032;-87
2022/10/01 00:14:07;;;;;;;17.42;12.45;;;8.60;99.90;;;;;;5075499;28;20552;-87
2022/10/01 00:16:33;;;;;;;19.88;12.82;;;8.70;99.90;;;;;;5076701;28;20082;-86
2022/10/01 00:18:59;;;;;;;16.05;12.50;;;8.80;99.90;;;;;;5074931;28;20021;-87
2022/10/01 00:21:30;;;;;;;16.20;12.45;;;8.80;99.90;;;;;;5076342;28;20033;-88
2022/10/01 00:23:59;;;;;;;16.70;11.52;;;8.80;99.90;;;;;;5076830;28;20073;-86
2022/10/01 00:26:28;;;;;;;13.57;10.95;;;8.90;99.90;;;;;;5076520;28;20021;-87
2022/10/01 00:28:59;;;;;;;13.43;9.32;;;8.80;99.90;;;;;;5076146;28;20033;-87
2022/10/01 00:31:26;;;;;;;13.30;10.10;;;8.60;99.90;;;;;;5076502;28;20020;-87
2022/10/01 00:33:58;;;;;;;10.85;9.45;;;8.40;99.90;;;;;;5075613;28;20048;-88
2022/10/01 00:36:25;;;;;;;10.60;9.40;;;8.30;99.90;;;;;;5076286;28;20040;-87
2022/10/01 00:38:50;;;;;;;13.20;9.82;;;8.40;99.90;;;;;;5075014;28;20021;-88
2022/10/01 00:41:17;;;;;;;11.75;9.63;;;8.40;99.90;;;;;;5076280;28;20021;-87
2022/10/01 00:43:54;;;;;;;12.88;10.57;;;8.40;99.90;;;;;;5074846;28;20021;-87
2022/10/01 00:46:25;;;;;;;12.15;9.38;;;8.40;99.90;;;;;;5076256;28;20090;-87
2022/10/01 00:49:01;;;;;;;11.00;9.15;;;8.40;99.90;;;;;;5075776;28;20052;-88
2022/10/01 00:51:35;;;;;;;12.35;9.05;;;8.40;99.90;;;;;;5075897;28;20043;-87
2022/10/01 00:54:14;;;;;;;12.98;9.40;;;8.40;99.90;;;;;;5075797;28;20032;-87
2022/10/01 00:56:42;;;;;;;11.52;9.65;;;8.40;99.90;;;;;;5075966;28;20089;-87
2022/10/01 00:59:09;;;;;;;10.73;8.68;;;8.70;99.90;;;;;;5076081;28;20028;-87
2022/10/01 01:01:36;;;;;;;14.38;9.63;;;8.60;99.90;;;;;;5075666;28;20032;-88
2022/10/01 01:04:01;;;;;;;11.65;8.98;;;8.60;99.90;;;;;;5075543;28;20155;-87
2022/10/01 01:06:27;;;;;;;12.68;8.57;;;8.70;99.90;;;;;;5074518;28;20082;-87
2022/10/01 01:08:55;;;;;;;9.48;8.48;;;8.70;99.90;;;;;;5075842;28;20029;-87
2022/10/01 01:11:26;;;;;;;11.63;8.23;;;8.70;99.90;;;;;;5075329;28;20029;-87
2022/10/01 01:14:34;;;;;;;9.90;8.13;;;8.80;99.90;;;;;;5074305;28;20027;-87
2022/10/01 01:17:07;;;;;;;11.57;8.02;;;8.80;99.90;;;;;;5073642;28;20037;-88
2022/10/01 01:19:41;;;;;;;9.48;8.00;;;8.60;99.90;;;;;;5075398;28;20607;-88
2022/10/01 01:22:12;;;;;;;10.48;8.43;;;8.60;99.90;;;;;;5075216;28;20123;-88
2022/10/01 01:24:46;;;;;;;10.48;7.53;;;8.60;99.90;;;;;;5075484;28;20385;-87
2022/10/01 01:27:33;;;;;;;12.32;8.32;;;8.60;99.90;;;;;;5075531;28;20035;-87
2022/10/01 01:30:12;;;;;;;10.50;8.25;;;8.70;99.90;;;;;;5075299;28;20028;-88
2022/10/01 01:32:45;;;;;;;9.23;7.82;;;8.60;99.90;;;;;;5074804;28;20450;-87
2022/10/01 01:35:15;;;;;;;8.70;7.25;;;8.60;99.90;;;;;;5074265;28;20443;-88
2022/10/01 01:37:47;;;;;;;9.43;7.40;;;8.50;99.90;;;;;;5074883;28;20029;-87
2022/10/01 01:40:15;;;;;;;10.20;8.07;;;8.60;99.90;;;;;;5073703;28;20029;-87
2022/10/01 01:42:45;;;;;;;11.73;8.23;;;8.60;99.90;;;;;;5074923;28;20051;-87
2022/10/01 01:45:16;;;;;;;9.85;7.85;;;8.50;99.90;;;;;;5075093;28;20051;-88
2022/10/01 01:47:44;;;;;;;9.35;7.65;;;8.50;99.90;;;;;;5075041;28;20017;-87
2022/10/01 01:50:13;;;;;;;10.40;8.30;;;8.50;99.90;;;;;;5074834;28;20492;-87
2022/10/01 01:52:40;;;;;;;11.63;9.05;;;8.40;99.90;;;;;;5073368;28;20028;-88
2022/10/01 01:55:07;;;;;;;10.95;8.75;;;8.50;99.90;;;;;;5073635;28;20099;-88
2022/10/01 01:57:39;;;;;;;9.93;8.90;;;8.50;99.90;;;;;;5074590;28;20123;-87
2022/10/01 02:00:05;;;;;;;11.75;8.45;;;8.50;99.90;;;;;;5073208;28;20040;-87
2022/10/01 02:02:32;;;;;;;11.02;8.82;;;8.50;99.90;;;;;;5074559;28;20025;-87
2022/10/01 02:05:12;;;;;;;12.02;8.75;;;8.70;99.90;;;;;;5074776;28;20016;-88
2022/10/01 02:07:43;;;;;;;10.63;9.25;;;8.40;99.90;;;;;;5074344;28;20040;-87
2022/10/01 02:10:17;;;;;;;11.50;8.85;;;8.40;99.90;;;;;;5074495;28;20048;-87
2022/10/01 02:12:52;;;;;;;11.75;9.07;;;8.30;99.90;;;;;;5073159;28;20054;-87
2022/10/01 02:15:40;;;;;;;10.70;9.07;;;8.50;99.90;;;;;;5073981;28;20052;-87
2022/10/01 02:18:06;;;;;;;9.95;8.20;;;8.40;99.90;;;;;;5074018;28;20040;-88
2022/10/01 02:21:00;;;;;;;11.23;8.15;;;8.20;99.90;;;;;;5073409;28;20016;-87
2022/10/01 02:23:39;;;;;;;10.50;8.00;;;8.10;99.90;;;;;;5073136;28;20059;-87
2022/10/01 02:26:15;;;;;;;11.15;8.70;;;8.10;99.90;;;;;;5073629;28;20029;-87
2022/10/01 02:28:41;;;;;;;11.70;7.88;;;8.10;99.90;;;;;;5071718;28;20088;-88
2022/10/01 02:31:09;;;;;;;12.63;8.55;;;8.20;99.90;;;;;;5071576;28;20476;-87
2022/10/01 02:33:37;;;;;;;11.48;8.35;;;8.30;99.90;;;;;;5073599;28;20127;-87
2022/10/01 02:36:06;;;;;;;11.45;7.93;;;8.40;99.90;;;;;;5072372;28;20039;-87
2022/10/01 02:38:36;;;;;;;10.38;8.65;;;8.40;99.90;;;;;;5073333;28;20048;-88
2022/10/01 02:41:04;;;;;;;9.23;7.95;;;8.40;99.90;;;;;;5071903;28;20031;-87
2022/10/01 02:43:36;;;;;;;13.10;9.18;;;8.60;99.90;;;;;;5073022;28;20025;-87
2022/10/01 02:46:28;;;;;;;13.10;9.10;;;8.60;99.90;;;;;;5073439;28;20025;-87
2022/10/01 02:48:55;;;;;;;13.75;8.15;;;8.70;99.90;;;;;;5071956;28;20147;-88
2022/10/01 02:51:27;;;;;;;10.18;8.85;;;9.00;99.90;;;;;;5072947;28;20017;-88
2022/10/01 02:54:12;;;;;;;14.30;8.88;;;9.10;99.90;;;;;;5071856;28;20036;-88
2022/10/01 02:59:24;;;;;;;12.63;8.52;;;8.80;99.90;;;;;;5072868;28;20040;-87
2022/10/01 03:01:49;;;;;;;16.20;8.85;;;8.80;99.90;;;;;;5071348;28;20484;-88
2022/10/01 03:04:15;;;;;;;10.25;8.70;;;8.60;99.90;;;;;;5073149;28;20056;-87
2022/10/01 03:06:40;;;;;;;9.95;8.20;;;8.70;99.90;;;;;;5073120;28;20453;-87
2022/10/01 03:09:07;;;;;;;10.52;8.55;;;8.70;99.90;;;;;;5073438;28;20055;-87
2022/10/01 03:11:33;;;;;;;12.30;9.20;;;8.60;99.90;;;;;;5072910;28;20609;-87
2022/10/01 03:14:00;;;;;;;11.52;8.85;;;8.60;99.90;;;;;;5071859;28;20029;-87
2022/10/01 03:16:25;;;;;;;11.15;8.95;;;8.60;99.90;;;;;;5073036;28;20115;-87
2022/10/01 03:18:51;;;;;;;12.00;9.23;;;8.80;99.90;;;;;;5073518;28;20055;-87
2022/10/01 03:21:17;;;;;;;10.32;8.77;;;8.60;99.90;;;;;;5072024;28;20434;-87
2022/10/01 03:23:43;;;;;;;12.95;9.60;;;8.60;99.90;;;;;;5071668;28;20029;-87
2022/10/01 03:26:08;;;;;;;10.73;8.82;;;8.60;99.90;;;;;;5072701;28;20032;-87
2022/10/01 03:28:34;;;;;;;13.30;9.38;;;8.60;99.90;;;;;;5070835;28;20054;-87
2022/10/01 03:31:05;;;;;;;13.23;9.35;;;8.70;99.90;;;;;;5071455;28;20103;-87
2022/10/01 03:33:30;;;;;;;10.07;8.65;;;8.70;99.90;;;;;;5071357;28;20052;-88
2022/10/01 03:35:56;;;;;;;9.48;8.43;;;8.70;99.90;;;;;;5072432;28;20174;-88
2022/10/01 03:38:21;;;;;;;12.07;9.25;;;8.80;99.90;;;;;;5071157;28;20051;-87
2022/10/01 03:40:47;;;;;;;10.80;8.95;;;8.90;99.90;;;;;;5072253;28;20032;-87
2022/10/01 03:43:12;;;;;;;10.73;8.50;;;8.80;99.90;;;;;;5071793;28;20079;-88
2022/10/01 03:45:38;;;;;;;11.25;8.82;;;8.70;99.90;;;;;;5076958;28;20028;-87
2022/10/01 03:48:04;;;;;;;11.95;8.88;;;8.70;99.90;;;;;;5076789;28;20024;-87
2022/10/01 03:50:29;;;;;;;9.95;8.38;;;8.60;99.90;;;;;;5076754;28;20546;-88
2022/10/01 03:52:55;;;;;;;12.40;8.30;;;8.60;99.90;;;;;;5076540;28;20047;-87
2022/10/01 03:55:21;;;;;;;13.38;8.75;;;8.60;99.90;;;;;;5076835;28;20477;-87
2022/10/01 03:57:47;;;;;;;10.98;8.88;;;8.60;99.90;;;;;;5074198;28;20028;-88
2022/10/01 04:00:12;;;;;;;9.35;8.45;;;8.60;99.90;;;;;;5075846;28;20021;-88
2022/10/01 04:02:38;;;;;;;13.50;8.90;;;8.60;99.90;;;;;;5076198;28;20366;-87
2022/10/01 04:05:04;;;;;;;12.70;8.57;;;8.60;99.90;;;;;;5076519;28;20052;-87
2022/10/01 04:07:29;;;;;;;10.98;8.43;;;8.70;99.90;;;;;;5076680;28;20036;-87
2022/10/01 04:09:55;;;;;;;8.98;8.07;;;8.80;99.90;;;;;;5076085;28;20021;-88
2022/10/01 04:12:21;;;;;;;11.60;8.10;;;8.80;99.90;;;;;;5075972;28;20388;-87
2022/10/01 04:14:47;;;;;;;8.80;7.90;;;8.70;99.90;;;;;;5077163;28;20090;-87
2022/10/01 04:17:12;;;;;;;10.25;7.32;;;8.80;99.90;;;;;;5075380;28;20039;-87
2022/10/01 04:19:38;;;;;;;9.18;7.78;;;8.90;99.90;;;;;;5076735;28;20431;-87
2022/10/01 04:22:03;;;;;;;8.77;7.85;;;8.80;99.90;;;;;;5075370;28;20030;-87
2022/10/01 04:24:29;;;;;;;12.05;7.95;;;8.80;99.90;;;;;;5075157;28;20029;-87
2022/10/01 04:26:54;;;;;;;9.35;7.93;;;9.00;99.90;;;;;;5076090;28;20029;-87
2022/10/01 04:29:20;;;;;;;10.75;8.52;;;8.80;99.90;;;;;;5075396;28;20443;-87
2022/10/01 04:31:46;;;;;;;9.13;7.78;;;8.80;99.90;;;;;;5076119;28;20028;-86
2022/10/01 04:34:11;;;;;;;8.75;7.85;;;8.90;99.90;;;;;;5074970;28;20052;-87
2022/10/01 04:36:37;;;;;;;10.07;7.90;;;8.90;99.90;;;;;;5076330;28;20119;-87
2022/10/01 04:39:02;;;;;;;8.95;7.75;;;9.00;99.90;;;;;;5076291;28;20671;-87
2022/10/01 04:41:29;;;;;;;10.32;8.32;;;9.00;99.90;;;;;;5076031;28;20028;-87
2022/10/01 04:43:56;;;;;;;9.30;7.63;;;9.20;99.90;;;;;;5075648;28;20086;-88
2022/10/01 04:46:21;;;;;;;10.02;7.65;;;9.10;99.90;;;;;;5075942;28;20050;-87
2022/10/01 04:48:48;;;;;;;9.45;8.18;;;9.30;99.90;;;;;;5075762;28;20024;-87
2022/10/01 04:51:14;;;;;;;8.77;7.40;;;9.10;99.90;;;;;;5074494;28;20041;-87
2022/10/01 04:53:40;;;;;;;9.80;7.30;;;9.10;99.90;;;;;;5074735;28;20028;-87
2022/10/01 04:56:06;;;;;;;9.90;6.93;;;9.00;99.90;;;;;;5074834;28;20385;-87
2022/10/01 04:58:32;;;;;;;10.15;7.40;;;9.00;99.90;;;;;;5074135;28;20074;-88
2022/10/01 05:00:57;;;;;;;10.80;6.93;;;9.10;99.90;;;;;;5074882;28;20392;-87
2022/10/01 05:03:23;;;;;;;11.73;7.40;;;9.40;99.90;;;;;;5075565;28;20103;-87
2022/10/01 05:05:49;;;;;;;8.52;7.63;;;9.10;99.90;;;;;;5074274;28;20078;-87
2022/10/01 05:08:14;;;;;;;8.65;7.20;;;9.20;99.90;;;;;;5074484;28;20027;-88
2022/10/01 05:10:40;;;;;;;8.10;7.20;;;9.40;99.90;;;;;;5076002;28;20028;-87
2022/10/01 05:13:05;;;;;;;9.55;7.53;;;9.40;99.90;;;;;;5074144;28;20029;-87
2022/10/01 05:15:31;;;;;;;9.57;8.57;;;9.50;99.90;;;;;;5075803;28;20062;-88
2022/10/01 05:17:57;;;;;;;9.93;8.20;;;9.40;99.90;;;;;;5075242;28;20048;-87
2022/10/01 05:20:25;;;;;;;10.25;8.02;;;9.10;99.90;;;;;;5073862;28;20025;-87
2022/10/01 05:22:51;;;;;;;10.38;8.65;;;9.20;99.90;;;;;;5073732;28;20032;-87
2022/10/01 05:25:18;;;;;;;10.95;8.48;;;9.10;99.90;;;;;;5074057;28;20074;-87
2022/10/01 05:27:44;;;;;;;11.25;8.32;;;9.10;99.90;;;;;;5074038;28;20110;-87
2022/10/01 05:30:12;;;;;;;9.60;8.50;;;9.20;99.90;;;;;;5074414;28;20115;-87
2022/10/01 05:32:38;;;;;;;10.05;7.50;;;9.20;99.90;;;;;;5073515;28;20447;-87
2022/10/01 05:35:05;;;;;;;9.60;8.27;;;9.20;99.90;;;;;;5075159;28;20516;-86
2022/10/01 05:37:32;;;;;;;11.30;7.55;;;9.20;99.90;;;;;;5073691;28;20039;-86
2022/10/01 05:39:58;;;;;;;10.25;7.75;;;9.20;99.90;;;;;;5074173;28;20027;-87
2022/10/01 05:42:23;;;;;;;14.10;7.72;;;9.40;99.90;;;;;;5075245;28;20473;-86
2022/10/01 05:44:49;;;;;;;9.93;8.32;;;9.30;99.90;;;;;;5075215;28;20547;-87
2022/10/01 05:47:16;;;;;;;9.48;8.27;;;9.40;99.90;;;;;;5074874;28;20473;-87
2022/10/01 05:49:43;;;;;;;12.35;8.63;;;9.50;99.90;;;;;;5075122;28;20032;-85
2022/10/01 05:52:13;;;;;;;11.70;8.48;;;9.60;99.90;;;;;;5073486;28;20112;-86
2022/10/01 05:54:39;;;;;;;11.85;9.25;;;9.70;99.90;;;;;;5073692;28;20107;-85
2022/10/01 05:57:06;;;;;;;12.05;9.02;;;9.50;99.90;;;;;;5073489;28;20119;-85
2022/10/01 05:59:32;;;;;;;9.73;7.97;;;9.80;99.90;;;;;;5073569;28;20069;-86
2022/10/01 06:01:58;;;;;;;9.70;8.77;;;9.60;99.90;;;;;;5073391;28;20552;-86
2022/10/01 06:04:24;;;;;;;11.40;8.73;;;10.20;99.90;;;;;;5073192;28;20052;-86
2022/10/01 06:06:49;;;;;;;10.48;8.30;;;10.20;99.90;;;;;;5072588;28;20153;-86
2022/10/01 06:09:15;;;;;;;10.02;8.05;;;10.10;99.90;;;;;;5073288;28;20016;-86
2022/10/01 06:11:41;;;;;;;10.15;9.15;;;10.00;99.90;;;;;;5073467;28;20033;-85
2022/10/01 06:14:06;;;;;;;9.52;8.55;;;10.10;99.90;;;;;;5073712;28;20024;-86
2022/10/01 06:16:32;;;;;;;12.38;9.25;;;10.00;99.90;;;;;;5072902;28;20098;-86
2022/10/01 06:18:58;;;;;;;10.30;9.20;;;10.20;99.90;;;;;;5073151;28;20431;-86
2022/10/01 06:21:24;;;;;;;12.32;9.48;;;10.00;99.90;;;;;;5072841;28;20491;-86
2022/10/01 06:23:50;;;;;;;10.18;9.02;;;10.00;99.90;;;;;;5073404;28;20092;-86
2022/10/01 06:26:16;;;;;;;12.05;8.75;;;9.90;99.90;;;;;;5073269;28;20029;-86
2022/10/01 06:28:42;;;;;;;13.23;9.35;;;10.30;99.90;;;;;;5072924;28;20091;-86
2022/10/01 06:31:08;;;;;;;10.00;8.50;;;10.00;99.90;;;;;;5071490;28;20063;-85
2022/10/01 06:33:34;;;;;;;9.45;8.27;;;10.40;99.90;;;;;;5071403;28;20568;-86
2022/10/01 06:36:00;;;;;;;10.70;8.50;;;10.20;99.90;;;;;;5072449;28;20144;-86
2022/10/01 06:38:25;;;;;;;9.93;8.23;;;10.30;99.90;;;;;;5072590;28;20103;-86
2022/10/01 06:40:56;;;;;;;13.80;7.82;;;10.50;99.90;;;;;;5072959;28;20050;-85
2022/10/01 06:43:24;;;;;;;10.18;7.50;;;10.80;99.90;;;;;;5073090;28;20491;-85
2022/10/01 06:45:50;;;;;;;10.57;7.50;;;10.60;99.90;;;;;;5072700;28;20020;-85
2022/10/01 06:48:17;;;;;;;9.55;8.27;;;10.60;99.90;;;;;;5072641;28;20025;-86
2022/10/01 06:50:44;;;;;;;10.35;9.32;;;10.40;99.90;;;;;;5072342;28;20401;-85
2022/10/01 06:53:10;;;;;;;12.73;9.48;;;10.40;99.90;;;;;;5072768;28;20016;-86
2022/10/01 06:55:37;;;;;;;10.35;9.35;;;10.60;99.90;;;;;;5072625;28;20158;-86
2022/10/01 06:58:09;;;;;;;12.77;10.15;;;10.60;99.90;;;;;;5072443;28;20397;-86
2022/10/01 07:00:37;;;;;;;10.15;8.80;;;10.60;99.90;;;;;;5073541;28;20025;-85
2022/10/01 07:03:09;;;;;;;11.35;9.02;;;10.80;99.90;;;;;;5071199;28;20519;-85
2022/10/01 07:05:34;;;;;;;12.57;8.93;;;10.90;99.90;;;;;;5072014;28;20028;-86
2022/10/01 07:08:00;;;;;;;10.57;8.98;;;10.90;99.90;;;;;;5072802;28;20021;-86
2022/10/01 07:10:26;;;;;;;11.00;8.88;;;10.90;99.90;;;;;;5070800;28;20048;-85
2022/10/01 07:12:51;;;;;;;10.68;8.95;;;10.80;99.90;;;;;;5072212;28;20028;-85
2022/10/01 07:15:21;;;;;;;11.18;8.70;;;11.20;99.90;;;;;;5072461;28;20447;-86
2022/10/01 07:17:49;;;;;;;9.73;8.50;;;10.90;99.90;;;;;;5071889;28;20549;-86
2022/10/01 07:20:16;;;;;;;11.52;8.73;;;11.20;99.90;;;;;;5071989;28;20044;-86
2022/10/01 07:22:43;;;;;;;12.25;8.65;;;11.10;99.90;;;;;;5072779;28;20094;-85
2022/10/01 07:25:09;;;;;;;9.80;8.02;;;11.20;99.90;;;;;;5072326;28;20029;-86
2022/10/01 07:27:35;;;;;;;7.65;6.60;;;11.40;99.90;;;;;;5072287;28;20027;-86
2022/10/01 07:30:01;;;;;;;10.00;7.20;;;11.40;99.90;;;;;;5071983;28;20102;-86
2022/10/01 07:32:30;;;;;;;9.38;6.82;;;11.50;99.90;;;;;;5071824;28;20484;-86
2022/10/01 07:34:56;;;;;;;8.40;7.53;;;11.60;99.90;;;;;;5072105;28;20028;-86
2022/10/01 07:37:21;;;;;;;11.55;8.68;;;11.50;99.90;;;;;;5072097;28;20560;-85
2022/10/01 07:39:47;;;;;;;9.90;8.65;;;11.40;99.90;;;;;;5072384;28;20029;-85
2022/10/01 07:42:13;;;;;;;10.25;8.65;;;11.50;99.90;;;;;;5071942;28;20404;-85
2022/10/01 07:44:38;;;;;;;13.98;9.27;;;11.70;99.90;;;;;;5072232;28;20096;-86
2022/10/01 07:47:04;;;;;;;10.98;8.95;;;11.80;99.90;;;;;;5072028;28;20502;-85
2022/10/01 07:49:29;;;;;;;10.13;7.80;;;11.70;99.90;;;;;;5072126;28;20025;-85
2022/10/01 07:51:57;;;;;;;11.25;7.88;;;12.00;99.90;;;;;;5071853;28;20099;-86
2022/10/01 07:54:23;;;;;;;9.90;5.60;;;12.20;99.90;;;;;;5071682;28;20040;-85
2022/10/01 07:56:54;;;;;;;7.10;5.15;;;12.30;99.90;;;;;;5071932;28;20037;-86
2022/10/01 07:59:23;;;;;;;6.00;5.03;;;12.50;99.90;;;;;;5072332;28;20075;-85
2022/10/01 08:01:53;;;;;;;6.03;4.00;;;12.70;99.90;;;;;;5071558;28;20036;-86
2022/10/01 08:07:05;;;;;;;4.63;3.85;;;12.70;99.90;;;;;;5072060;28;20182;-85
2022/10/01 08:09:30;;;;;;;4.78;3.50;;;12.80;99.90;;;;;;5070871;28;20400;-86
2022/10/01 08:11:56;;;;;;;6.70;3.55;;;12.90;99.90;;;;;;5071739;28;20024;-85
2022/10/01 08:14:22;;;;;;;7.30;4.90;;;13.00;99.90;;;;;;5070706;28;20028;-86
2022/10/01 08:16:47;;;;;;;8.13;6.32;;;12.80;99.90;;;;;;5071578;28;20071;-86
2022/10/01 08:19:14;;;;;;;7.45;6.13;;;12.70;99.90;;;;;;5070332;28;20103;-86
2022/10/01 08:21:40;;;;;;;9.65;5.30;;;12.70;99.90;;;;;;5072035;28;20078;-85
2022/10/01 08:24:06;;;;;;;7.38;4.90;;;12.70;99.90;;;;;;5071625;28;20031;-86
2022/10/01 08:26:32;;;;;;;6.05;4.72;;;12.70;99.90;;;;;;5071728;28;20036;-86
2022/10/01 08:28:58;;;;;;;4.72;4.22;;;12.70;99.90;;;;;;5071732;28;20025;-86
2022/10/01 08:31:24;;;;;;;5.55;4.20;;;12.70;99.90;;;;;;5074746;28;20504;-85
2022/10/01 08:33:50;;;;;;;6.38;4.47;;;12.70;99.90;;;;;;5075322;28;20087;-85
2022/10/01 08:36:16;;;;;;;5.88;4.43;;;12.70;99.90;;;;;;5074106;28;20052;-85
2022/10/01 08:38:45;;;;;;;5.18;4.13;;;12.70;99.90;;;;;;5073998;28;20082;-86
2022/10/01 08:41:34;;;;;;;5.68;4.60;;;12.60;99.90;;;;;;5075118;28;20468;-86
2022/10/01 08:44:03;;;;;;;5.82;3.25;;;12.60;99.90;;;;;;5053014;28;20481;-85
2022/10/01 08:46:33;;;;;;;4.63;3.65;;;12.60;99.90;;;;;;5035847;28;20040;-85
2022/10/01 08:49:10;;;;;;;5.68;4.40;;;12.60;99.90;;;;;;5053255;28;20061;-86
2022/10/01 08:51:50;;;;;;;7.00;4.60;;;12.60;99.90;;;;;;5052963;28;20035;-85
2022/10/01 08:54:38;;;;;;;5.07;4.53;;;12.60;99.90;;;;;;5052492;28;20579;-86
2022/10/01 08:57:10;;;;;;;9.57;5.03;;;12.70;99.90;;;;;;5053525;28;20127;-86
2022/10/01 08:59:45;;;;;;;7.97;5.28;;;12.60;99.90;;;;;;5052964;28;20025;-85
2022/10/01 09:02:28;;;;;;;7.90;5.63;;;12.60;99.90;;;;;;5052465;28;20516;-86
2022/10/01 09:05:38;;;;;;;6.30;5.70;;;12.60;99.90;;;;;;5052946;28;20071;-86
2022/10/01 09:08:18;;;;;;;6.88;5.07;;;12.60;99.90;;;;;;4993002;28;20042;-85
2022/10/01 09:11:03;;;;;;;5.70;4.60;;;12.70;99.90;;;;;;4992920;28;20030;-86
2022/10/01 09:14:06;;;;;;;5.93;4.03;;;12.80;99.90;;;;;;4993797;28;20139;-85
2022/10/01 09:16:53;;;;;;;5.78;4.68;;;12.70;99.90;;;;;;4934533;29;20051;-86
2022/10/01 09:19:32;;;;;;;4.47;3.80;;;12.80;99.90;;;;;;4935456;29;20662;-85
2022/10/01 09:22:08;;;;;;;3.58;3.28;;;12.70;99.90;;;;;;4902444;29;20083;-85
2022/10/01 09:24:49;;;;;;;3.60;2.90;;;12.70;99.90;;;;;;4897070;29;20047;-85
2022/10/01 09:27:17;;;;;;;4.65;3.03;;;12.70;99.90;;;;;;4897111;29;20163;-86
2022/10/01 09:30:17;;;;;;;4.10;3.05;;;12.70;99.90;;;;;;4896497;29;20069;-86
2022/10/01 09:33:03;;;;;;;7.03;2.83;;;12.60;99.90;;;;;;4916003;29;20080;-85
2022/10/01 09:35:33;;;;;;;3.30;2.78;;;12.60;99.90;;;;;;4915846;29;20087;-85
2022/10/01 09:38:12;;;;;;;3.03;2.60;;;12.70;99.90;;;;;;4916041;29;20195;-85
2022/10/01 09:40:53;;;;;;;4.22;2.72;;;12.60;99.90;;;;;;4915715;29;20024;-85
2022/10/01 09:43:25;;;;;;;4.70;2.58;;;12.60;99.90;;;;;;4941122;28;20046;-85
2022/10/01 09:45:51;;;;;;;3.53;2.70;;;12.50;99.90;;;;;;4972816;28;20035;-86
2022/10/01 09:48:28;;;;;;;3.00;2.60;;;12.40;99.90;;;;;;4972913;28;20042;-86
2022/10/01 09:50:58;;;;;;;2.63;2.42;;;12.40;99.90;;;;;;4974338;28;20034;-85
2022/10/01 09:53:41;;;;;;;3.88;2.33;;;12.30;99.90;;;;;;5031737;28;20457;-85
2022/10/01 09:56:33;;;;;;;3.00;2.70;;;12.40;99.90;;;;;;5031897;28;20029;-85
2022/10/01 09:59:04;;;;;;;2.95;2.20;;;12.30;99.90;;;;;;5031522;28;20448;-85
2022/10/01 10:01:41;;;;;;;5.13;2.80;;;12.40;99.90;;;;;;5045902;28;20037;-86
2022/10/01 10:04:08;;;;;;;2.55;1.98;;;12.30;99.90;;;;;;5051425;28;20052;-85
2022/10/01 10:06:34;;;;;;;3.78;2.40;;;12.40;99.90;;;;;;5051682;28;20523;-86
2022/10/01 10:09:00;;;;;;;2.97;2.42;;;12.40;99.90;;;;;;5048167;28;20032;-86
2022/10/01 10:11:29;;;;;;;2.83;2.35;;;12.40;99.90;;;;;;5052138;28;20025;-85
2022/10/01 10:14:03;;;;;;;3.15;2.42;;;12.40;99.90;;;;;;5053150;28;20052;-86
2022/10/01 10:16:36;;;;;;;3.40;2.28;;;12.40;99.90;;;;;;5053690;28;20025;-86
2022/10/01 10:19:09;;;;;;;3.50;2.75;;;12.50;99.90;;;;;;5051923;28;20025;-86
2022/10/01 10:21:35;;;;;;;3.30;2.92;;;12.60;99.90;;;;;;5053094;28;20112;-86
2022/10/01 10:24:20;;;;;;;4.28;3.05;;;12.60;99.90;;;;;;5053383;28;20029;-86
2022/10/01 10:26:52;;;;;;;4.95;2.90;;;12.90;99.90;;;;;;5053151;28;20031;-86
2022/10/01 10:29:45;;;;;;;5.68;3.40;;;13.00;99.90;;;;;;5051375;28;20374;-86
2022/10/01 10:32:37;;;;;;;4.40;3.13;;;13.00;99.90;;;;;;5070643;28;20116;-84
2022/10/01 10:35:09;;;;;;;2.72;2.42;;;13.20;99.90;;;;;;5071662;28;20059;-85
2022/10/01 10:37:48;;;;;;;3.00;1.80;;;13.40;99.90;;;;;;5073056;28;20033;-86
2022/10/01 10:40:45;;;;;;;2.80;2.30;;;13.30;99.90;;;;;;5073267;28;20039;-85
2022/10/01 10:43:24;;;;;;;4.95;2.35;;;13.40;99.90;;;;;;5071550;28;20490;-86
2022/10/01 10:45:56;;;;;;;2.95;2.00;;;13.40;99.90;;;;;;5072664;28;20100;-86
2022/10/01 10:48:28;;;;;;;3.50;1.98;;;13.60;99.90;;;;;;5071225;28;20028;-86
2022/10/01 10:51:03;;;;;;;3.35;2.00;;;13.70;99.90;;;;;;5072593;28;20036;-86
2022/10/01 10:53:45;;;;;;;5.80;5.15;;;13.60;99.90;;;;;;5072165;28;20024;-86
2022/10/01 10:56:23;;;;;;;2.33;2.03;;;13.80;99.90;;;;;;5072245;28;20029;-85
2022/10/01 10:58:50;;;;;;;2.30;1.77;;;13.90;99.90;;;;;;5072623;28;20397;-85
2022/10/01 11:01:25;;;;;;;1.63;1.40;;;13.90;99.90;;;;;;5072316;28;20025;-85
2022/10/01 11:03:55;;;;;;;3.10;1.48;;;13.80;99.90;;;;;;5072352;28;20033;-85
2022/10/01 11:06:21;;;;;;;1.55;1.45;;;14.00;99.90;;;;;;5072576;28;20025;-85
2022/10/01 11:08:56;;;;;;;1.63;1.52;;;14.00;99.90;;;;;;5072343;28;20028;-85
2022/10/01 11:11:37;;;;;;;1.70;1.50;;;14.00;99.90;;;;;;5072013;28;20100;-85
2022/10/01 11:14:02;;;;;;;3.10;1.73;;;13.90;99.90;;;;;;5072586;28;20436;-85
2022/10/01 11:16:52;;;;;;;1.55;1.27;;;14.30;99.90;;;;;;5072431;28;20115;-85
2022/10/01 11:19:27;;;;;;;1.58;1.20;;;14.20;99.90;;;;;;5072506;28;20131;-85
2022/10/01 11:22:30;;;;;;;1.20;1.10;;;13.80;99.90;;;;;;5072611;28;20066;-85
2022/10/01 11:25:17;;;;;;;2.35;1.50;;;13.90;99.90;;;;;;5072900;28;20100;-85
2022/10/01 11:27:56;;;;;;;2.08;1.50;;;13.80;99.90;;;;;;5072277;28;20484;-85
2022/10/01 11:30:25;;;;;;;1.48;1.35;;;14.00;99.90;;;;;;5071982;28;20021;-86
2022/10/01 11:33:19;;;;;;;1.63;1.38;;;13.90;99.90;;;;;;5072432;28;20028;-85
2022/10/01 11:35:56;;;;;;;1.30;0.98;;;14.30;99.90;;;;;;5072134;28;20037;-85
2022/10/01 11:38:28;;;;;;;1.95;1.20;;;14.60;99.90;;;;;;5070743;28;20041;-85
2022/10/01 11:41:18;;;;;;;2.38;1.33;;;15.10;99.90;;;;;;5072199;28;20056;-86
2022/10/01 11:43:50;;;;;;;2.67;1.38;;;15.30;99.90;;;;;;5072597;28;20086;-86
2022/10/01 11:46:33;;;;;;;1.25;1.10;;;15.70;99.90;;;;;;5072209;28;20029;-86
2022/10/01 11:49:11;;;;;;;1.17;0.85;;;15.60;99.90;;;;;;5072267;28;20025;-85
2022/10/01 11:51:43;;;;;;;3.10;1.00;;;15.20;99.90;;;;;;5071959;28;20017;-85
2022/10/01 11:54:16;;;;;;;3.10;1.20;;;14.90;99.90;;;;;;5072005;28;20021;-84
2022/10/01 11:59:49;;;;;;;1.52;0.90;;;14.80;99.90;;;;;;5071893;28;20042;-86
2022/10/01 12:02:33;;;;;;;1.90;1.10;;;15.10;99.90;;;;;;5071732;28;20028;-85
2022/10/01 12:05:07;;;;;;;1.92;0.88;;;14.90;99.90;;;;;;5073450;28;20024;-85
2022/10/01 12:07:48;;;;;;;0.98;0.98;;;15.10;99.90;;;;;;5075918;28;20070;-86
2022/10/01 12:10:16;;;;;;;1.42;0.95;;;15.10;99.90;;;;;;5074619;28;20563;-86
2022/10/01 12:12:59;;;;;;;1.52;1.00;;;15.40;99.90;;;;;;5075853;28;20020;-85
2022/10/01 12:15:30;;;;;;;1.83;1.10;;;15.20;99.90;;;;;;5076345;28;20004;-86
2022/10/01 12:18:19;;;;;;;1.95;1.40;;;14.80;99.90;;;;;;5075932;28;20511;-86
2022/10/01 12:20:54;;;;;;;1.45;0.95;;;15.10;99.90;;;;;;5075532;28;20025;-86
2022/10/01 12:23:25;;;;;;;1.88;1.10;;;15.30;99.90;;;;;;5075261;28;20524;-85
2022/10/01 12:26:08;;;;;;;2.15;1.10;;;15.60;99.90;;;;;;5075417;28;20032;-86
2022/10/01 12:28:46;;;;;;;1.90;1.27;;;15.60;99.90;;;;;;5075392;28;20090;-86
2022/10/01 12:31:33;;;;;;;1.25;1.02;;;15.60;99.90;;;;;;5075128;28;20024;-86
2022/10/01 12:34:10;;;;;;;2.22;1.02;;;15.40;99.90;;;;;;5075403;28;20055;-86
2022/10/01 12:36:41;;;;;;;2.53;1.10;;;15.50;99.90;;;;;;5075077;28;20420;-86
2022/10/01 12:39:22;;;;;;;1.90;1.48;;;15.50;99.90;;;;;;5074816;28;20035;-86
2022/10/01 12:42:28;;;;;;;2.35;1.30;;;15.60;99.90;;;;;;5075125;28;20031;-86
2022/10/01 12:45:33;;;;;;;1.38;1.10;;;15.70;99.90;;;;;;5075033;28;20033;-85
2022/10/01 12:47:58;;;;;;;2.78;1.60;;;15.80;99.90;;;;;;5074195;28;20040;-86
2022/10/01 12:50:35;;;;;;;1.63;0.95;;;15.90;99.90;;;;;;5074946;28;20032;-86
2022/10/01 12:53:16;;;;;;;1.70;1.40;;;16.00;99.90;;;;;;5074620;28;20029;-86
2022/10/01 12:55:48;;;;;;;1.95;1.30;;;16.10;99.90;;;;;;5074844;28;20016;-85
2022/10/01 12:58:38;;;;;;;1.40;1.30;;;16.10;99.90;;;;;;5074789;28;20162;-86
2022/10/01 13:01:34;;;;;;;2.53;1.35;;;16.10;99.90;;;;;;5074621;28;20664;-86
2022/10/01 13:04:09;;;;;;;2.83;1.52;;;16.20;99.90;;;;;;5074566;28;20028;-86
2022/10/01 13:06:59;;;;;;;3.05;1.20;;;16.50;99.90;;;;;;5075026;28;20047;-86
2022/10/01 13:09:43;;;;;;;2.20;1.98;;;16.50;99.90;;;;;;5074987;28;20446;-85
2022/10/01 13:12:21;;;;;;;1.10;0.95;;;16.60;99.90;;;;;;5074911;28;20480;-86
2022/10/01 13:14:47;;;;;;;0.98;0.93;;;16.60;99.90;;;;;;5074406;28;20067;-85
2022/10/01 13:17:35;;;;;;;1.00;0.90;;;16.70;99.90;;;;;;5074183;28;20036;-85